Time;durP1;ratioP1;P1;durP2;ratioP2;P2;SDS_P1;SDS_P2;PMS_P1;PMS_P2;Temp;Humidity;BMP_temperature;BMP_pressure;BME280_temperature;BME280_humidity;BME280_pressure;Samples;Min_cycle;Max_cycle;Signal;HPM_P1;HPM_P2
2022/05/02 00:01:32;;;;;;;20.45;14.23;;;;;;;9.14;62.21;101871.63;3589485;39;20599;-62
2022/05/02 00:03:57;;;;;;;17.88;14.15;;;;;;;9.21;62.19;101886.53;3589573;40;20055;-63
2022/05/02 00:06:23;;;;;;;19.85;15.00;;;;;;;9.16;62.50;101883.16;3590828;40;20370;-63
2022/05/02 00:08:49;;;;;;;17.88;14.65;;;;;;;9.16;63.64;101880.47;3589576;40;20128;-63
2022/05/02 00:11:14;;;;;;;18.52;15.13;;;;;;;9.07;63.27;101865.63;3592363;40;20079;-63
2022/05/02 00:13:40;;;;;;;19.58;14.80;;;;;;;9.11;63.55;101863.69;3592036;40;20060;-62
2022/05/02 00:16:07;;;;;;;21.98;15.55;;;;;;;9.06;62.74;101863.84;3592082;40;20063;-63
2022/05/02 00:18:32;;;;;;;18.60;15.05;;;;;;;9.12;62.73;101870.78;3590912;40;20048;-61
2022/05/02 00:20:58;;;;;;;20.73;15.15;;;;;;;9.10;63.05;101872.66;3593001;40;20095;-63
2022/05/02 00:23:23;;;;;;;21.48;15.75;;;;;;;9.07;63.35;101876.34;3594053;40;20371;-63
2022/05/02 00:25:50;;;;;;;19.05;14.88;;;;;;;9.04;63.68;101876.47;3592068;40;20056;-63
2022/05/02 00:28:16;;;;;;;20.90;15.35;;;;;;;9.01;63.30;101874.78;3593965;40;20387;-63
2022/05/02 00:30:43;;;;;;;19.70;15.38;;;;;;;8.98;64.06;101863.28;3591097;40;20051;-63
2022/05/02 00:33:10;;;;;;;24.92;15.90;;;;;;;8.96;63.10;101866.03;3592374;40;20059;-63
2022/05/02 00:35:36;;;;;;;20.05;15.40;;;;;;;8.88;63.19;101853.81;3587198;40;20099;-63
2022/05/02 00:38:01;;;;;;;19.05;15.38;;;;;;;8.85;63.71;101849.47;3587621;40;20125;-63
2022/05/02 00:40:27;;;;;;;21.48;15.80;;;;;;;8.78;63.67;101846.13;3590885;40;20048;-63
2022/05/02 00:42:52;;;;;;;18.92;15.73;;;;;;;8.76;63.95;101852.50;3579926;40;21224;-63
2022/05/02 00:45:20;;;;;;;21.17;16.00;;;;;;;8.74;63.62;101852.56;3589493;40;20055;-63
2022/05/02 00:47:57;;;;;;;21.60;15.93;;;;;;;8.69;64.39;101845.59;3584620;40;20051;-61
2022/05/02 00:50:42;;;;;;;21.40;17.02;;;;;;;8.60;64.24;101855.75;3578144;40;20060;-62
2022/05/02 00:53:28;;;;;;;23.00;16.80;;;;;;;8.58;64.49;101856.75;3590014;40;20136;-63
2022/05/02 00:55:54;;;;;;;25.63;16.80;;;;;;;8.56;65.02;101854.13;3582891;40;20363;-63
2022/05/02 00:58:19;;;;;;;20.13;15.25;;;;;;;8.56;65.01;101853.22;3589365;40;20055;-63
2022/05/02 01:00:45;;;;;;;21.15;16.33;;;;;;;8.44;65.28;101837.63;3590620;39;20067;-61
2022/05/02 01:03:13;;;;;;;23.20;16.38;;;;;;;8.53;64.82;101854.25;3589250;40;20567;-62
2022/05/02 01:08:29;;;;;;;21.83;16.33;;;;;;;8.54;64.77;101850.63;3589420;40;20062;-62
2022/05/02 01:10:57;;;;;;;20.58;15.15;;;;;;;8.53;65.13;101850.66;3585452;40;20041;-63
2022/05/02 01:13:40;;;;;;;21.63;16.38;;;;;;;8.49;66.05;101852.59;3589696;40;20091;-63
2022/05/02 01:16:17;;;;;;;20.37;16.23;;;;;;;8.47;65.26;101846.44;3589190;40;20074;-62
2022/05/02 01:18:46;;;;;;;19.52;16.45;;;;;;;8.43;64.95;101838.53;3588917;40;20056;-63
2022/05/02 01:21:21;;;;;;;23.27;16.00;;;;;;;8.41;64.84;101841.28;3590837;40;20067;-63
2022/05/02 01:23:52;;;;;;;20.92;17.17;;;;;;;8.37;65.15;101843.19;3589669;40;20129;-63
2022/05/02 01:26:19;;;;;;;20.23;16.83;;;;;;;8.35;65.73;101854.88;3589973;40;20106;-63
2022/05/02 01:29:00;;;;;;;22.58;16.65;;;;;;;8.26;66.21;101839.13;3588293;40;20054;-62
2022/05/02 01:31:26;;;;;;;22.80;16.80;;;;;;;8.28;65.75;101839.97;3590306;40;20310;-63
2022/05/02 01:33:54;;;;;;;20.05;16.23;;;;;;;8.27;66.47;101840.88;3591675;40;20055;-63
2022/05/02 01:36:23;;;;;;;24.23;17.73;;;;;;;8.25;65.93;101837.41;3590016;40;20503;-61
2022/05/02 01:38:50;;;;;;;23.05;17.20;;;;;;;8.24;65.78;101839.16;3589233;40;20141;-63
2022/05/02 01:41:16;;;;;;;22.55;17.40;;;;;;;8.21;65.89;101836.59;3590449;40;20390;-62
2022/05/02 01:43:43;;;;;;;24.15;18.08;;;;;;;8.18;66.13;101835.84;3571332;40;20054;-61
2022/05/02 01:46:12;;;;;;;25.30;18.05;;;;;;;8.12;66.29;101837.81;3586051;40;20745;-63
2022/05/02 01:48:38;;;;;;;24.25;17.40;;;;;;;7.46;66.56;101721.47;3588731;40;20090;-64
2022/05/02 01:51:04;;;;;;;21.40;16.58;;;;;;;8.08;66.48;101841.53;3590800;40;20375;-63
2022/05/02 01:53:30;;;;;;;22.92;17.55;;;;;;;8.03;66.62;101835.47;3584123;40;20051;-62
2022/05/02 01:55:56;;;;;;;23.75;18.13;;;;;;;7.95;66.82;101829.50;3589009;40;20382;-64
2022/05/02 01:58:22;;;;;;;21.05;17.75;;;;;;;8.00;66.80;101829.34;3590206;40;20081;-63
2022/05/02 02:00:48;;;;;;;26.08;17.45;;;;;;;7.98;66.71;101834.75;3589846;39;20302;-64
2022/05/02 02:03:15;;;;;;;24.08;18.05;;;;;;;7.96;67.22;101831.25;3590690;40;20121;-63
2022/05/02 02:05:49;;;;;;;21.35;17.35;;;;;;;7.93;67.12;101831.38;3587379;40;20078;-62
2022/05/02 02:08:27;;;;;;;23.58;17.75;;;;;;;7.81;67.58;101818.41;3588401;40;20058;-63
2022/05/02 02:10:58;;;;;;;25.52;17.83;;;;;;;7.87;67.52;101831.59;3589671;40;20052;-61
2022/05/02 02:13:24;;;;;;;21.55;16.83;;;;;;;7.83;67.28;101830.81;3589322;40;20087;-61
2022/05/02 02:15:50;;;;;;;24.55;18.58;;;;;;;7.84;67.37;101832.56;3588813;40;20083;-61
2022/05/02 02:18:16;;;;;;;22.75;17.50;;;;;;;7.79;67.25;101825.59;3590201;40;20044;-63
2022/05/02 02:20:45;;;;;;;22.27;17.77;;;;;;;7.75;68.01;101826.66;3589643;40;20048;-61
2022/05/02 02:23:14;;;;;;;24.00;17.08;;;;;;;7.80;67.35;101832.69;3590727;40;20059;-61
2022/05/02 02:25:40;;;;;;;23.52;17.50;;;;;;;7.74;67.36;101820.41;3589822;40;20056;-62
2022/05/02 02:28:07;;;;;;;24.05;18.83;;;;;;;7.74;67.43;101822.19;3590864;40;20062;-62
2022/05/02 02:30:33;;;;;;;27.10;20.23;;;;;;;7.78;66.36;101829.22;3586490;40;20047;-61
2022/05/02 02:33:01;;;;;;;29.90;21.95;;;;;;;7.74;66.67;101823.09;3591165;40;20048;-61
2022/05/02 02:35:29;;;;;;;32.78;25.05;;;;;;;7.70;67.35;101831.25;3592509;40;20060;-62
2022/05/02 02:37:55;;;;;;;33.60;24.40;;;;;;;7.55;67.48;101803.22;3594187;40;20048;-62
2022/05/02 02:40:21;;;;;;;33.05;24.15;;;;;;;7.50;67.68;101799.84;3593859;40;20083;-61
2022/05/02 02:42:47;;;;;;;34.17;23.75;;;;;;;7.41;68.10;101782.28;3586396;40;20091;-61
2022/05/02 02:45:13;;;;;;;30.88;24.65;;;;;;;7.60;67.81;101826.22;3591644;40;20059;-62
2022/05/02 02:47:39;;;;;;;34.25;20.83;;;;;;;7.57;68.00;101820.09;3590244;40;20095;-62
2022/05/02 02:50:06;;;;;;;26.15;19.92;;;;;;;7.54;68.36;101818.38;3589537;40;20064;-61
2022/05/02 02:52:31;;;;;;;25.73;20.17;;;;;;;7.54;68.54;101817.53;3590719;40;20051;-64
2022/05/02 02:54:57;;;;;;;24.05;19.23;;;;;;;7.53;68.17;101816.66;3590113;40;20162;-62
2022/05/02 02:57:23;;;;;;;24.92;19.25;;;;;;;7.43;68.66;101793.81;3584352;40;20047;-62
2022/05/02 02:59:48;;;;;;;23.98;19.08;;;;;;;7.52;68.12;101804.22;3586746;40;20056;-61
2022/05/02 03:02:15;;;;;;;21.77;18.17;;;;;;;7.48;68.24;101812.38;3589388;39;20063;-62
2022/05/02 03:07:28;;;;;;;22.30;17.30;;;;;;;7.32;68.04;101780.78;3590664;40;20297;-62
2022/05/02 03:09:57;;;;;;;23.02;17.88;;;;;;;7.31;68.08;101780.84;3592214;40;20455;-62
2022/05/02 03:12:22;;;;;;;20.58;16.25;;;;;;;7.37;68.01;101794.88;3593265;40;20095;-61
2022/05/02 03:14:48;;;;;;;21.90;16.60;;;;;;;7.33;68.76;101800.41;3594197;40;20067;-61
2022/05/02 03:17:14;;;;;;;21.10;15.57;;;;;;;7.28;68.37;101795.19;3580878;40;20392;-62
2022/05/02 03:19:39;;;;;;;21.67;15.32;;;;;;;7.09;68.89;101775.31;3584319;40;20060;-60
2022/05/02 03:22:05;;;;;;;19.35;16.05;;;;;;;7.20;68.68;101791.91;3591252;40;20058;-62
2022/05/02 03:24:31;;;;;;;19.10;15.40;;;;;;;7.13;69.21;101784.97;3592126;40;20055;-62
2022/05/02 03:26:57;;;;;;;22.52;15.35;;;;;;;7.07;68.82;101790.50;3589767;40;20302;-62
2022/05/02 03:29:22;;;;;;;20.70;16.98;;;;;;;7.00;69.12;101788.97;3592084;40;20087;-63
2022/05/02 03:31:48;;;;;;;19.83;15.80;;;;;;;7.00;69.85;101797.00;3592553;40;20068;-62
2022/05/02 03:34:14;;;;;;;21.13;15.50;;;;;;;6.95;69.52;101791.81;3591962;40;20059;-62
2022/05/02 03:36:39;;;;;;;20.55;15.73;;;;;;;6.93;69.90;101783.81;3591579;40;20322;-62
2022/05/02 03:39:05;;;;;;;22.30;16.02;;;;;;;6.96;69.76;101799.75;3592750;40;20055;-62
2022/05/02 03:41:31;;;;;;;19.42;15.80;;;;;;;6.89;69.25;101792.84;3583198;40;20121;-62
2022/05/02 03:43:58;;;;;;;20.75;15.07;;;;;;;6.90;69.80;101797.28;3591307;40;20059;-62
2022/05/02 03:46:24;;;;;;;20.85;15.88;;;;;;;6.89;69.68;101798.19;3592653;40;20164;-61
2022/05/02 03:48:50;;;;;;;22.83;15.95;;;;;;;6.88;69.53;101790.22;3588221;39;20055;-61
2022/05/02 03:51:17;;;;;;;18.67;15.32;;;;;;;6.86;69.77;101784.94;3591513;40;20048;-62
2022/05/02 03:53:42;;;;;;;19.88;15.45;;;;;;;6.88;69.57;101790.22;3592556;40;20051;-62
2022/05/02 03:56:08;;;;;;;20.83;15.55;;;;;;;6.84;69.65;101800.13;3590578;40;20062;-62
2022/05/02 03:58:34;;;;;;;22.83;15.68;;;;;;;6.73;69.82;101792.47;3582841;40;20043;-62
2022/05/02 04:01:00;;;;;;;21.98;16.27;;;;;;;6.59;70.18;101767.94;3592732;40;20064;-62
2022/05/02 04:03:26;;;;;;;21.50;15.77;;;;;;;6.61;70.22;101771.44;3578134;40;20055;-61
2022/05/02 04:05:52;;;;;;;20.02;16.10;;;;;;;6.71;70.06;101791.63;3585302;40;20059;-62
2022/05/02 04:08:17;;;;;;;22.42;16.20;;;;;;;6.69;69.82;101796.16;3591853;40;20064;-63
2022/05/02 04:10:43;;;;;;;22.05;16.52;;;;;;;6.63;70.12;101785.66;3580982;40;20055;-63
2022/05/02 04:13:09;;;;;;;21.58;15.98;;;;;;;6.54;70.04;101767.22;3589862;40;20067;-64
2022/05/02 04:15:36;;;;;;;19.10;15.85;;;;;;;6.22;70.02;101715.63;3592079;39;20056;-63
2022/05/02 04:18:02;;;;;;;21.52;16.40;;;;;;;6.54;70.00;101769.88;3594693;40;20048;-64
2022/05/02 04:20:27;;;;;;;22.85;16.67;;;;;;;6.63;69.66;101791.00;3593637;40;20051;-63
2022/05/02 04:22:53;;;;;;;21.77;16.83;;;;;;;6.18;69.62;101713.97;3590643;40;20076;-64
2022/05/02 04:25:19;;;;;;;21.63;16.33;;;;;;;6.64;69.99;101790.06;3626812;22;20113;-63
2022/05/02 04:27:45;;;;;;;24.33;17.50;;;;;;;6.63;70.12;101796.34;3598002;39;20044;-62
2022/05/02 04:30:12;;;;;;;22.35;17.23;;;;;;;6.63;70.21;101791.00;3591177;39;20112;-63
2022/05/02 04:32:38;;;;;;;24.00;18.38;;;;;;;6.68;70.13;101794.38;3598163;39;20498;-63
2022/05/02 04:35:05;;;;;;;23.70;18.52;;;;;;;6.67;70.41;101792.63;3592051;39;20052;-63
2022/05/02 04:37:31;;;;;;;24.02;18.10;;;;;;;6.72;70.51;101795.16;3586549;40;20382;-62
2022/05/02 04:39:57;;;;;;;24.52;17.63;;;;;;;6.74;70.27;101788.84;3588847;40;20048;-63
2022/05/02 04:42:23;;;;;;;23.23;17.50;;;;;;;6.73;70.09;101778.22;3586980;40;20471;-63
2022/05/02 04:44:50;;;;;;;23.75;17.65;;;;;;;6.82;69.94;101790.41;3586125;39;20081;-63
2022/05/02 04:47:16;;;;;;;24.45;18.08;;;;;;;6.82;69.71;101793.97;3589323;40;20056;-63
2022/05/02 04:49:42;;;;;;;21.63;17.35;;;;;;;6.84;69.47;101789.44;3591273;40;20074;-63
2022/05/02 04:52:08;;;;;;;21.40;17.27;;;;;;;6.87;69.88;101800.03;3588898;40;20396;-63
2022/05/02 04:54:33;;;;;;;24.52;17.30;;;;;;;6.81;69.60;101777.97;3590391;39;20059;-63
2022/05/02 04:56:59;;;;;;;23.25;17.60;;;;;;;6.97;69.82;101788.13;3592416;40;20047;-62
2022/05/02 04:59:24;;;;;;;22.17;17.05;;;;;;;7.11;68.98;101798.41;3592095;40;20054;-62
2022/05/02 05:01:50;;;;;;;23.48;17.30;;;;;;;7.16;68.88;101799.13;3589725;39;20854;-63
2022/05/02 05:04:17;;;;;;;25.48;18.35;;;;;;;7.21;68.63;101799.84;3590658;40;20120;-62
2022/05/02 05:06:43;;;;;;;24.65;18.55;;;;;;;7.24;69.19;101798.88;3587422;40;20122;-62
2022/05/02 05:09:08;;;;;;;22.52;18.30;;;;;;;7.30;69.09;101804.03;3587815;40;20059;-62
2022/05/02 05:11:53;;;;;;;20.98;17.83;;;;;;;7.36;68.82;101801.16;3590560;40;20058;-62
2022/05/02 05:17:59;;;;;;;25.40;19.05;;;;;;;7.55;68.85;101801.44;3588271;40;20075;-62
2022/05/02 05:20:59;;;;;;;25.13;18.73;;;;;;;7.59;69.24;101794.19;3589061;39;20040;-62
2022/05/02 05:24:04;;;;;;;24.40;19.30;;;;;;;7.76;68.99;101802.47;3587946;40;20063;-62
2022/05/02 05:26:58;;;;;;;27.05;21.67;;;;;;;7.86;69.25;101803.03;3589460;39;20114;-64
2022/05/02 05:30:00;;;;;;;28.48;22.50;;;;;;;7.91;69.20;101790.38;3590526;40;20059;-62
2022/05/02 05:33:12;;;;;;;28.95;23.02;;;;;;;8.09;69.15;101792.41;3586410;40;20056;-62
2022/05/02 05:36:03;;;;;;;29.02;23.90;;;;;;;8.19;69.49;101786.72;3564199;40;20055;-62
2022/05/02 05:38:41;;;;;;;28.58;23.70;;;;;;;8.29;69.25;101796.16;3591042;40;20051;-62
2022/05/02 05:42:05;;;;;;;29.70;23.35;;;;;;;8.29;68.65;101764.88;3590562;40;20050;-62
2022/05/02 05:44:51;;;;;;;28.70;23.10;;;;;;;8.47;68.79;101794.63;3548608;40;20377;-62
2022/05/02 05:47:38;;;;;;;29.98;23.80;;;;;;;8.54;68.35;101788.13;3580037;40;20060;-62
2022/05/02 05:50:24;;;;;;;31.75;23.45;;;;;;;8.65;68.47;101798.41;3587500;40;20064;-62
2022/05/02 05:53:04;;;;;;;28.25;23.40;;;;;;;8.74;67.85;101806.13;3589676;40;20047;-62
2022/05/02 05:56:07;;;;;;;29.88;23.27;;;;;;;8.78;67.07;101799.69;3591203;40;20071;-61
2022/05/02 05:59:08;;;;;;;30.42;23.05;;;;;;;8.90;67.24;101809.94;3590081;40;20064;-62
2022/05/02 06:01:53;;;;;;;29.15;22.95;;;;;;;9.01;67.10;101806.84;3591200;39;20048;-62
2022/05/02 06:04:24;;;;;;;34.33;21.92;;;;;;;9.07;66.40;101794.06;3588063;40;20361;-62
2022/05/02 06:06:50;;;;;;;28.17;22.90;;;;;;;9.21;66.37;101803.38;3590513;40;20069;-62
2022/05/02 06:09:18;;;;;;;28.88;22.42;;;;;;;9.28;66.03;101804.84;3591978;40;20350;-62
2022/05/02 06:11:46;;;;;;;26.58;21.95;;;;;;;9.36;65.06;101804.56;3587616;40;20129;-63
2022/05/02 06:14:14;;;;;;;25.83;21.80;;;;;;;9.49;65.42;101809.34;3590055;39;20401;-62
2022/05/02 06:19:33;;;;;;;26.25;21.67;;;;;;;9.79;64.33;101811.66;3590355;40;20349;-62
2022/05/02 06:22:03;;;;;;;26.80;21.40;;;;;;;9.93;64.10;101798.53;3588524;39;20051;-62
2022/05/02 06:24:36;;;;;;;29.27;21.05;;;;;;;10.18;63.51;101806.38;3590474;40;20043;-62
2022/05/02 06:27:04;;;;;;;27.70;20.58;;;;;;;10.38;63.13;101807.34;3590837;40;20052;-62
2022/05/02 06:29:36;;;;;;;25.13;19.30;;;;;;;10.63;62.61;101809.78;3589441;40;20063;-62
2022/05/02 06:32:10;;;;;;;24.95;19.33;;;;;;;10.89;61.00;101812.09;3591032;39;20055;-62
2022/05/02 06:34:38;;;;;;;27.73;19.02;;;;;;;11.20;60.64;101805.25;3592296;40;20048;-62
2022/05/02 06:37:35;;;;;;;24.10;20.33;;;;;;;11.48;59.44;101809.25;3590973;39;20051;-63
2022/05/02 06:40:14;;;;;;;27.27;18.92;;;;;;;11.76;58.88;101804.22;3592044;40;20058;-62
2022/05/02 06:43:18;;;;;;;20.17;16.83;;;;;;;12.08;57.71;101804.41;3589219;39;20125;-62
2022/05/02 06:46:19;;;;;;;24.45;17.40;;;;;;;12.43;57.27;101802.56;3593391;40;20107;-62
2022/05/02 06:49:08;;;;;;;20.08;16.83;;;;;;;12.73;55.82;101804.53;3587651;40;20051;-62
2022/05/02 06:51:48;;;;;;;20.50;15.75;;;;;;;13.02;54.89;101805.59;3591743;40;20067;-63
2022/05/02 06:55:01;;;;;;;22.17;17.17;;;;;;;13.38;54.19;101809.88;3590517;40;20098;-63
2022/05/02 06:57:50;;;;;;;23.58;17.13;;;;;;;13.78;53.75;101807.56;3593329;40;20064;-62
2022/05/02 07:00:20;;;;;;;23.52;15.98;;;;;;;14.11;52.28;101805.53;3592409;39;20079;-62
2022/05/02 07:03:22;;;;;;;20.33;16.02;;;;;;;14.40;51.77;101806.44;3593183;40;20120;-63
2022/05/02 07:06:09;;;;;;;20.55;16.40;;;;;;;14.53;50.84;101781.34;3591392;40;20287;-63
2022/05/02 07:08:55;;;;;;;17.30;15.35;;;;;;;14.82;48.76;101806.56;3590740;39;20052;-63
2022/05/02 07:11:47;;;;;;;18.92;14.02;;;;;;;14.99;49.85;101806.31;3590989;40;20066;-62
2022/05/02 07:14:56;;;;;;;18.85;13.68;;;;;;;15.16;49.59;101801.63;3588825;40;20153;-63
2022/05/02 07:17:40;;;;;;;18.33;13.20;;;;;;;15.38;48.79;101804.69;3577030;40;20132;-62
2022/05/02 07:20:09;;;;;;;20.90;13.10;;;;;;;15.58;47.43;101805.22;3589851;40;20091;-63
2022/05/02 07:22:42;;;;;;;17.95;13.85;;;;;;;15.76;47.68;101809.38;3591981;40;20075;-63
2022/05/02 07:25:11;;;;;;;18.17;13.63;;;;;;;15.89;47.52;101810.31;3591998;39;20075;-63
2022/05/02 07:28:06;;;;;;;18.55;14.05;;;;;;;15.99;46.32;101800.56;3592204;40;20377;-63
2022/05/02 07:30:34;;;;;;;17.52;13.48;;;;;;;16.14;46.54;101804.06;3592610;40;20113;-61
2022/05/02 07:33:03;;;;;;;16.40;12.85;;;;;;;16.42;44.73;101799.38;3591948;40;20050;-60
2022/05/02 07:35:30;;;;;;;15.18;12.80;;;;;;;16.52;45.55;101792.31;3591935;40;20087;-62
2022/05/02 07:37:58;;;;;;;15.48;12.57;;;;;;;16.60;44.81;101789.06;3582265;40;20060;-62
2022/05/02 07:40:25;;;;;;;17.20;12.55;;;;;;;16.68;43.35;101795.69;3591352;39;20367;-62
2022/05/02 07:42:54;;;;;;;17.58;11.55;;;;;;;16.83;42.64;101787.44;3589260;39;20361;-61
2022/05/02 07:45:28;;;;;;;14.48;11.80;;;;;;;17.00;42.33;101800.66;3592708;40;20071;-61
2022/05/02 07:48:03;;;;;;;15.13;12.10;;;;;;;16.89;42.46;101781.56;3581747;40;20072;-62
2022/05/02 07:50:31;;;;;;;12.73;10.48;;;;;;;17.14;43.68;101799.63;3588776;40;20045;-61
2022/05/02 07:52:58;;;;;;;15.18;11.55;;;;;;;17.27;41.45;101803.19;3589115;39;20052;-62
2022/05/02 07:55:24;;;;;;;14.25;11.57;;;;;;;17.35;42.95;101797.19;3590879;39;20571;-62
2022/05/02 07:57:51;;;;;;;14.15;11.65;;;;;;;17.46;42.38;101796.38;3591743;39;20345;-62
2022/05/02 08:00:17;;;;;;;18.33;11.98;;;;;;;17.63;39.93;101801.38;3591231;39;20059;-62
2022/05/02 08:02:44;;;;;;;13.25;11.43;;;;;;;17.53;39.44;101789.47;3592025;39;20156;-61
2022/05/02 08:05:10;;;;;;;12.27;10.98;;;;;;;17.65;38.84;101793.97;3591595;40;20099;-62
2022/05/02 08:07:42;;;;;;;15.82;11.90;;;;;;;17.80;38.71;101813.75;3582307;40;20407;-64
2022/05/02 08:10:35;;;;;;;13.45;11.00;;;;;;;17.92;39.34;101807.34;3591707;39;20048;-62
2022/05/02 08:13:23;;;;;;;13.05;10.65;;;;;;;17.98;38.32;101797.84;3590659;40;20328;-62
2022/05/02 08:16:05;;;;;;;15.70;10.65;;;;;;;18.14;37.88;101795.69;3591052;39;20413;-63
2022/05/02 08:19:16;;;;;;;11.40;9.37;;;;;;;18.24;37.50;101788.50;3589515;40;20056;-63
2022/05/02 08:27:15;;;;;;;14.18;9.75;;;;;;;18.48;37.70;101796.56;3589126;40;20067;-62
2022/05/02 08:28:07;;;;;;;10.63;9.52;;;;;;;18.88;37.11;101792.53;3590549;40;20062;-62
2022/05/02 08:30:47;;;;;;;12.00;9.65;;;;;;;19.09;36.79;101798.94;3592085;40;20067;-61
2022/05/02 08:33:25;;;;;;;17.73;11.27;;;;;;;19.21;35.09;101797.91;3592009;40;20068;-61
2022/05/02 08:36:02;;;;;;;12.85;10.23;;;;;;;19.16;35.01;101797.44;3590947;40;20121;-61
2022/05/02 08:38:50;;;;;;;10.73;8.60;;;;;;;19.16;35.26;101792.00;3590248;40;20048;-62
2022/05/02 08:41:31;;;;;;;10.05;8.88;;;;;;;19.17;34.54;101795.59;3588943;40;20068;-61
2022/05/02 08:44:55;;;;;;;11.45;9.07;;;;;;;19.30;35.25;101790.84;3589302;40;20422;-63
2022/05/02 08:47:54;;;;;;;15.25;10.63;;;;;;;19.45;34.54;101800.47;3582547;40;20180;-62
2022/05/02 08:50:52;;;;;;;12.68;10.02;;;;;;;19.40;34.51;101799.13;3591830;39;20432;-61
2022/05/02 08:53:55;;;;;;;14.70;10.80;;;;;;;19.55;33.68;101794.25;3592698;40;20318;-61
2022/05/02 08:56:57;;;;;;;13.05;9.75;;;;;;;19.80;34.46;101793.91;3591477;40;20105;-61
2022/05/02 08:59:39;;;;;;;11.98;8.93;;;;;;;20.12;33.48;101787.56;3591997;40;20054;-62
2022/05/02 09:02:54;;;;;;;9.80;8.80;;;;;;;20.31;33.43;101789.53;3590900;39;20160;-62
2022/05/02 09:06:04;;;;;;;9.85;8.82;;;;;;;20.53;32.71;101786.66;3591589;40;20293;-62
2022/05/02 09:09:10;;;;;;;11.30;9.80;;;;;;;20.53;32.08;101775.75;3591540;40;20048;-62
2022/05/02 09:12:22;;;;;;;9.38;8.15;;;;;;;20.73;31.06;101786.75;3590772;40;20306;-62
2022/05/02 09:15:20;;;;;;;9.57;8.57;;;;;;;21.09;32.36;101777.97;3591411;40;20052;-61
2022/05/02 09:18:33;;;;;;;12.73;9.15;;;;;;;21.23;32.34;101779.44;3591562;40;20090;-61
2022/05/02 09:21:22;;;;;;;9.15;8.02;;;;;;;21.20;30.20;101787.06;3589927;40;20299;-60
2022/05/02 09:24:44;;;;;;;10.98;8.25;;;;;;;21.39;30.46;101789.84;3590671;40;20287;-62
2022/05/02 09:27:34;;;;;;;8.63;7.05;;;;;;;21.74;29.68;101785.69;3578358;40;20051;-62
2022/05/02 09:30:50;;;;;;;8.60;7.80;;;;;;;21.75;30.28;101779.19;3591145;39;20056;-61
2022/05/02 09:34:23;;;;;;;9.73;7.90;;;;;;;21.76;30.15;101770.88;3589773;39;20402;-62
2022/05/02 09:37:05;;;;;;;9.98;8.95;;;;;;;21.65;29.31;101773.72;3562194;40;20053;-62
2022/05/02 09:40:01;;;;;;;10.95;8.45;;;;;;;21.73;29.68;101765.69;3561832;40;20432;-61
2022/05/02 09:43:05;;;;;;;11.10;9.02;;;;;;;21.61;30.59;101772.31;3571342;40;20060;-62
2022/05/02 09:52:03;;;;;;;10.63;8.75;;;;;;;21.85;30.49;101758.19;3590487;40;20048;-62
2022/05/02 09:58:38;;;;;;;10.13;7.90;;;;;;;21.87;28.98;101756.16;3591595;40;20388;-62
2022/05/02 10:01:17;;;;;;;8.48;7.63;;;;;;;22.16;30.76;101750.66;3573136;39;20072;-61
2022/05/02 10:04:01;;;;;;;9.98;8.52;;;;;;;22.24;28.60;101750.78;3591808;40;20055;-61
2022/05/02 10:06:50;;;;;;;14.10;8.63;;;;;;;22.30;29.26;101748.47;3592336;39;20059;-61
2022/05/02 10:10:29;;;;;;;9.20;8.20;;;;;;;22.44;29.03;101748.84;3590394;39;20128;-61
2022/05/02 10:13:31;;;;;;;8.18;7.38;;;;;;;22.48;26.82;101747.50;3567975;40;20412;-61
2022/05/02 10:16:33;;;;;;;10.70;7.93;;;;;;;22.38;28.28;101748.56;3590123;40;20119;-61
2022/05/02 10:19:42;;;;;;;8.73;6.80;;;;;;;22.39;27.44;101751.19;3583501;39;20043;-61
2022/05/02 10:22:48;;;;;;;8.27;6.93;;;;;;;22.57;27.16;101748.50;3590970;40;20056;-61
2022/05/02 10:25:41;;;;;;;11.30;7.90;;;;;;;22.42;28.78;101741.78;3591982;40;20068;-60
2022/05/02 10:28:27;;;;;;;9.77;7.10;;;;;;;22.06;27.93;101670.38;3621021;22;20162;-85
2022/05/02 10:31:09;;;;;;;9.88;7.35;;;;;;;22.00;27.34;101622.53;3593674;39;20071;-86
2022/05/02 10:33:45;;;;;;;9.05;7.35;;;;;;;22.32;26.39;101665.09;3594825;39;20101;-86
2022/05/02 10:36:12;;;;;;;8.80;7.85;;;;;;;22.12;26.40;101628.69;3595022;40;20068;-87
2022/05/02 10:39:06;;;;;;;10.82;8.48;;;;;;;21.10;27.55;101462.53;3595687;40;20054;-85
2022/05/02 10:41:58;;;;;;;8.65;7.85;;;;;;;22.52;27.58;101733.50;3594491;40;20047;-86
2022/05/02 10:44:44;;;;;;;15.27;7.93;;;;;;;21.94;28.18;101611.31;3589674;40;20057;-86
2022/05/02 10:47:14;;;;;;;9.23;7.47;;;;;;;22.74;27.87;101733.16;3594763;40;20081;-86
2022/05/02 10:50:03;;;;;;;12.65;7.70;;;;;;;22.74;26.60;101699.34;3594393;40;20064;-86
2022/05/02 10:52:54;;;;;;;8.98;7.53;;;;;;;22.75;26.73;101731.25;3584289;40;20051;-86
2022/05/02 10:55:30;;;;;;;8.63;7.10;;;;;;;22.57;27.36;101692.81;3587631;40;20032;-86
2022/05/02 10:58:08;;;;;;;78.95;70.45;;;;;;;22.93;26.98;101724.84;3584065;40;20058;-85
2022/05/02 11:01:05;;;;;;;22.85;17.38;;;;;;;22.93;26.30;101700.16;3587197;40;20409;-86
2022/05/02 11:04:02;;;;;;;12.35;7.57;;;;;;;23.08;27.65;101714.19;3598531;40;20137;-87
2022/05/02 11:06:47;;;;;;;9.75;7.68;;;;;;;23.10;25.78;101719.53;3587114;40;20047;-86
2022/05/02 11:10:11;;;;;;;9.57;7.53;;;;;;;22.68;26.93;101676.19;3594826;40;20056;-85
2022/05/02 11:13:08;;;;;;;10.43;8.40;;;;;;;22.88;27.84;101718.06;3572549;40;20064;-85
2022/05/02 11:16:09;;;;;;;10.40;7.90;;;;;;;22.85;28.48;101708.25;3585072;40;20101;-86
2022/05/02 11:22:24;;;;;;;11.73;7.70;;;;;;;23.49;26.19;101705.50;3595071;40;20478;-86
2022/05/02 11:25:17;;;;;;;7.47;6.72;;;;;;;23.25;26.48;101621.97;3593986;40;20113;-86
2022/05/02 11:28:22;;;;;;;7.85;7.15;;;;;;;23.97;25.12;101704.19;3594758;40;20064;-86
2022/05/02 11:31:21;;;;;;;10.23;7.60;;;;;;;23.76;25.25;101667.00;3588345;40;20299;-85
2022/05/02 11:34:33;;;;;;;7.95;7.20;;;;;;;24.06;26.54;101686.75;3597321;40;20052;-86
2022/05/02 11:37:00;;;;;;;8.73;7.55;;;;;;;22.89;26.08;101462.88;3588143;40;20058;-86
2022/05/02 11:40:00;;;;;;;9.93;7.80;;;;;;;23.68;25.07;101603.75;3588064;40;20048;-87
2022/05/02 11:42:28;;;;;;;10.13;7.78;;;;;;;23.99;24.32;101637.09;3588548;40;20048;-86
2022/05/02 11:45:35;;;;;;;10.10;8.30;;;;;;;24.15;24.97;101669.28;3591525;40;20048;-85
2022/05/02 11:48:07;;;;;;;8.93;8.05;;;;;;;24.41;23.90;101687.63;3594493;40;20041;-86
2022/05/02 11:51:00;;;;;;;9.90;8.73;;;;;;;24.07;26.22;101630.78;3597027;40;20092;-86
2022/05/02 11:53:35;;;;;;;11.25;8.07;;;;;;;24.43;23.85;101680.97;3595216;39;20055;-86
2022/05/02 11:56:05;;;;;;;9.07;7.53;;;;;;;23.14;26.14;101461.22;3596594;40;20047;-88
2022/05/02 11:58:46;;;;;;;8.95;7.90;;;;;;;24.59;24.38;101660.94;3598020;40;20102;-86
2022/05/02 12:01:25;;;;;;;9.13;7.25;;;;;;;24.70;24.08;101679.84;3598764;40;20098;-86
2022/05/02 12:04:00;;;;;;;10.82;8.30;;;;;;;24.70;25.46;101668.00;3591081;40;20045;-86
2022/05/02 12:06:45;;;;;;;9.18;8.20;;;;;;;24.52;24.78;101665.38;3591768;40;20077;-86
2022/05/02 12:09:25;;;;;;;12.85;8.50;;;;;;;24.63;24.43;101645.81;3585844;40;20047;-86
2022/05/02 12:11:56;;;;;;;9.02;8.05;;;;;;;24.59;24.17;101614.19;3593767;40;20475;-86
2022/05/02 12:14:22;;;;;;;9.10;7.18;;;;;;;24.79;24.92;101618.34;3589254;40;20055;-86
2022/05/02 12:17:10;;;;;;;14.32;8.13;;;;;;;24.86;25.72;101617.69;3596983;40;20067;-86
2022/05/02 12:19:41;;;;;;;14.80;8.38;;;;;;;24.32;23.63;101508.09;3586102;40;20913;-87
2022/05/02 12:22:22;;;;;;;9.15;8.00;;;;;;;25.12;22.93;101628.53;3586877;40;20405;-86
2022/05/02 12:24:53;;;;;;;10.25;8.15;;;;;;;25.45;22.94;101657.84;3595985;40;20047;-86
2022/05/02 12:27:26;;;;;;;8.05;7.28;;;;;;;25.33;23.80;101663.88;3591211;40;20117;-86
2022/05/02 12:29:58;;;;;;;8.15;6.93;;;;;;;25.33;23.31;101648.19;3585391;40;20052;-85
2022/05/02 12:32:26;;;;;;;9.25;7.85;;;;;;;25.51;24.25;101656.31;3580982;40;20052;-85
2022/05/02 12:34:56;;;;;;;11.38;7.80;;;;;;;25.44;22.97;101647.03;3585612;40;20048;-86